Time;durP1;ratioP1;P1;durP2;ratioP2;P2;SDS_P1;SDS_P2;PMS_P1;PMS_P2;Temp;Humidity;BMP_temperature;BMP_pressure;BME280_temperature;BME280_humidity;BME280_pressure;Samples;Min_cycle;Max_cycle;Signal;HPM_P1;HPM_P2
2024/01/16 00:02:02;;;;;;;5.75;2.20;;;;;;;;;;5065524;28;20247;-85
2024/01/16 00:04:29;;;;;;;9.07;1.42;;;;;;;;;;5032859;28;20075;-86
2024/01/16 00:06:57;;;;;;;5.10;1.17;;;;;;;;;;5081041;27;20044;-85
2024/01/16 00:09:24;;;;;;;8.40;1.50;;;;;;;;;;5053523;28;20033;-85
2024/01/16 00:11:51;;;;;;;4.03;1.08;;;;;;;;;;5029831;28;20036;-85
2024/01/16 00:14:18;;;;;;;4.80;1.30;;;;;;;;;;5054665;28;20047;-85
2024/01/16 00:16:46;;;;;;;7.18;1.60;;;;;;;;;;5048581;28;20044;-85
2024/01/16 00:19:13;;;;;;;7.10;1.48;;;;;;;;;;5040850;28;20124;-86
2024/01/16 00:21:47;;;;;;;6.78;1.40;;;;;;;;;;5033472;28;20036;-85
2024/01/16 00:24:14;;;;;;;4.97;1.33;;;;;;;;;;5055282;28;20361;-85
2024/01/16 00:26:42;;;;;;;3.55;1.33;;;;;;;;;;5043058;28;20092;-85
2024/01/16 00:29:09;;;;;;;4.10;1.48;;;;;;;;;;5057119;28;20036;-85
2024/01/16 00:31:36;;;;;;;3.67;1.40;;;;;;;;;;5079204;28;20119;-85
2024/01/16 00:34:03;;;;;;;5.25;1.48;;;;;;;;;;5064681;28;20127;-86
2024/01/16 00:36:32;;;;;;;7.20;1.25;;;;;;;;;;5047982;28;20036;-85
2024/01/16 00:38:59;;;;;;;6.20;1.92;;;;;;;;;;5048623;28;20036;-85
2024/01/16 00:41:26;;;;;;;3.50;1.15;;;;;;;;;;5034769;28;20045;-85
2024/01/16 00:43:54;;;;;;;6.38;1.80;;;;;;;;;;5075061;27;20170;-86
2024/01/16 00:46:21;;;;;;;8.45;1.67;;;;;;;;;;5064952;28;20040;-86
2024/01/16 00:48:48;;;;;;;9.27;2.10;;;;;;;;;;5046808;28;20073;-86
2024/01/16 00:51:16;;;;;;;8.10;1.20;;;;;;;;;;5066744;28;20055;-86
2024/01/16 00:53:43;;;;;;;5.90;1.50;;;;;;;;;;5048356;28;20052;-85
2024/01/16 00:56:12;;;;;;;4.10;1.10;;;;;;;;;;5049928;28;20080;-86
2024/01/16 00:58:39;;;;;;;;;;;;;;;;;;5049957;28;20063;-86
2024/01/16 01:01:07;;;;;;;6.10;1.48;;;;;;;;;;5065381;28;20424;-86
2024/01/16 01:03:34;;;;;;;8.93;2.00;;;;;;;;;;5041945;28;20038;-86
2024/01/16 01:06:01;;;;;;;9.27;1.48;;;;;;;;;;5032560;28;20063;-86
2024/01/16 01:08:28;;;;;;;6.00;1.48;;;;;;;;;;5039484;28;20079;-86
2024/01/16 01:10:56;;;;;;;11.38;1.85;;;;;;;;;;5027635;28;20091;-86
2024/01/16 01:13:24;;;;;;;5.97;1.45;;;;;;;;;;5052796;28;20135;-86
2024/01/16 01:15:52;;;;;;;10.63;1.52;;;;;;;;;;5031204;28;20105;-86
2024/01/16 01:18:20;;;;;;;3.93;0.93;;;;;;;;;;5047240;28;20075;-86
2024/01/16 01:20:47;;;;;;;7.63;1.70;;;;;;;;;;5061481;28;20040;-86
2024/01/16 01:23:14;;;;;;;7.50;1.77;;;;;;;;;;5054003;28;20040;-86
2024/01/16 01:25:42;;;;;;;7.07;1.40;;;;;;;;;;5034079;28;20047;-86
2024/01/16 01:28:10;;;;;;;3.58;0.95;;;;;;;;;;5055084;28;20772;-86
2024/01/16 01:30:37;;;;;;;5.00;1.25;;;;;;;;;;5068407;28;20178;-86
2024/01/16 01:33:05;;;;;;;4.10;1.27;;;;;;;;;;5051091;28;20047;-86
2024/01/16 01:35:33;;;;;;;5.65;1.10;;;;;;;;;;5031311;28;20769;-86
2024/01/16 01:38:00;;;;;;;6.45;1.20;;;;;;;;;;5051093;28;20043;-86
2024/01/16 01:40:28;;;;;;;4.13;1.10;;;;;;;;;;5039838;28;20127;-86
2024/01/16 01:42:55;;;;;;;2.83;1.10;;;;;;;;;;5046994;28;20044;-86
2024/01/16 01:45:22;;;;;;;4.00;1.23;;;;;;;;;;5052316;28;20046;-86
2024/01/16 01:47:50;;;;;;;4.35;1.02;;;;;;;;;;5046128;28;20048;-86
2024/01/16 01:50:18;;;;;;;7.05;1.13;;;;;;;;;;5050808;28;20040;-86
2024/01/16 01:52:45;;;;;;;7.10;1.10;;;;;;;;;;5062245;28;20052;-86
2024/01/16 01:55:12;;;;;;;5.30;1.25;;;;;;;;;;5064693;28;20040;-85
2024/01/16 01:57:40;;;;;;;6.90;0.93;;;;;;;;;;5029326;28;20441;-86
2024/01/16 02:00:07;;;;;;;4.20;1.20;;;;;;;;;;5064550;28;20059;-86
2024/01/16 02:02:34;;;;;;;3.38;0.75;;;;;;;;;;5041960;28;20050;-86
2024/01/16 02:05:01;;;;;;;4.20;0.80;;;;;;;;;;5035001;28;20079;-86
2024/01/16 02:07:29;;;;;;;3.55;1.30;;;;;;;;;;5044978;28;20356;-86
2024/01/16 02:09:57;;;;;;;;;;;;;;;;;;5080466;28;20048;-86
2024/01/16 02:12:24;;;;;;;3.47;1.10;;;;;;;;;;5061366;28;20597;-86
2024/01/16 02:14:51;;;;;;;3.17;0.80;;;;;;;;;;5061889;28;20660;-86
2024/01/16 02:17:19;;;;;;;4.75;0.90;;;;;;;;;;5036044;28;20493;-86
2024/01/16 02:19:46;;;;;;;3.00;0.88;;;;;;;;;;5048674;28;20043;-86
2024/01/16 02:22:16;;;;;;;3.33;0.80;;;;;;;;;;5065222;28;20037;-86
2024/01/16 02:24:43;;;;;;;5.20;1.00;;;;;;;;;;5062456;28;20040;-86
2024/01/16 02:27:10;;;;;;;3.15;1.00;;;;;;;;;;5050599;28;20052;-86
2024/01/16 02:29:42;;;;;;;4.05;0.98;;;;;;;;;;5049578;28;20051;-86
2024/01/16 02:32:11;;;;;;;4.13;1.15;;;;;;;;;;5040611;28;20052;-86
2024/01/16 02:34:38;;;;;;;5.03;0.93;;;;;;;;;;5049082;28;20055;-86
2024/01/16 02:37:05;;;;;;;4.00;0.93;;;;;;;;;;5043883;28;20404;-86
2024/01/16 02:39:32;;;;;;;4.70;0.70;;;;;;;;;;5036354;28;20094;-86
2024/01/16 02:42:00;;;;;;;2.90;0.77;;;;;;;;;;5051024;28;20389;-86
2024/01/16 02:44:27;;;;;;;3.30;0.65;;;;;;;;;;5052892;28;20057;-86
2024/01/16 02:46:54;;;;;;;3.00;0.60;;;;;;;;;;5069676;28;20082;-85
2024/01/16 02:49:22;;;;;;;2.47;0.80;;;;;;;;;;5047118;28;20081;-85
2024/01/16 02:51:49;;;;;;;1.43;0.63;;;;;;;;;;5027018;28;20535;-86
2024/01/16 02:54:18;;;;;;;4.18;1.15;;;;;;;;;;5069057;28;20036;-85
2024/01/16 02:56:45;;;;;;;;;;;;;;;;;;5037521;28;20052;-86
2024/01/16 02:59:12;;;;;;;2.70;1.10;;;;;;;;;;5084434;27;20394;-86
2024/01/16 03:01:39;;;;;;;3.90;1.10;;;;;;;;;;5033735;28;20060;-86
2024/01/16 03:04:06;;;;;;;5.60;1.90;;;;;;;;;;5065339;28;20044;-86
2024/01/16 03:06:33;;;;;;;1.05;0.77;;;;;;;;;;5062524;28;20056;-86
2024/01/16 03:09:00;;;;;;;4.43;1.10;;;;;;;;;;5050810;28;20044;-86
2024/01/16 03:11:27;;;;;;;3.35;0.80;;;;;;;;;;5052041;28;20067;-86
2024/01/16 03:13:54;;;;;;;2.55;0.65;;;;;;;;;;5033598;28;20085;-86
2024/01/16 03:16:22;;;;;;;4.53;1.00;;;;;;;;;;5037739;28;20131;-86
2024/01/16 03:18:49;;;;;;;2.78;0.88;;;;;;;;;;5046591;28;20039;-86
2024/01/16 03:21:16;;;;;;;4.75;0.80;;;;;;;;;;5036938;28;20087;-86
2024/01/16 03:23:44;;;;;;;3.83;0.95;;;;;;;;;;5031421;28;20033;-85
2024/01/16 03:26:18;;;;;;;4.57;1.13;;;;;;;;;;5046679;28;20052;-86
2024/01/16 03:28:45;;;;;;;3.10;1.10;;;;;;;;;;5047610;28;24427;-86
2024/01/16 03:31:14;;;;;;;6.32;1.05;;;;;;;;;;5035421;28;20049;-86
2024/01/16 03:33:42;;;;;;;3.63;0.93;;;;;;;;;;5048926;28;20043;-86
2024/01/16 03:36:09;;;;;;;8.18;2.17;;;;;;;;;;5050694;28;20040;-86
2024/01/16 03:38:37;;;;;;;4.23;1.20;;;;;;;;;;5081687;27;20040;-86
2024/01/16 03:41:06;;;;;;;5.82;1.10;;;;;;;;;;5050261;28;20313;-86
2024/01/16 03:43:34;;;;;;;7.72;1.08;;;;;;;;;;5048122;28;20139;-86
2024/01/16 03:46:02;;;;;;;3.38;0.90;;;;;;;;;;5047090;28;20450;-86
2024/01/16 03:48:29;;;;;;;3.07;1.07;;;;;;;;;;5035131;28;20043;-86
2024/01/16 03:50:56;;;;;;;4.82;1.20;;;;;;;;;;5044663;28;20353;-86
2024/01/16 03:53:24;;;;;;;3.05;0.80;;;;;;;;;;5036103;28;20036;-86
2024/01/16 03:55:51;;;;;;;5.63;0.93;;;;;;;;;;5060327;28;20040;-87
2024/01/16 03:58:18;;;;;;;5.35;0.70;;;;;;;;;;5035310;28;20111;-86
2024/01/16 04:00:46;;;;;;;6.78;1.15;;;;;;;;;;5044104;28;20043;-86
2024/01/16 04:03:13;;;;;;;4.63;1.35;;;;;;;;;;5039019;28;20589;-86
2024/01/16 04:05:40;;;;;;;5.30;0.93;;;;;;;;;;5032338;28;20076;-85
2024/01/16 04:08:07;;;;;;;3.50;0.82;;;;;;;;;;5037060;28;20044;-86
2024/01/16 04:10:34;;;;;;;6.20;0.95;;;;;;;;;;5043507;28;20040;-86
2024/01/16 04:13:02;;;;;;;2.05;0.63;;;;;;;;;;5068403;28;20373;-86
2024/01/16 04:15:29;;;;;;;5.57;1.00;;;;;;;;;;5053250;28;20044;-86
2024/01/16 04:17:57;;;;;;;6.95;1.10;;;;;;;;;;5045753;28;20050;-85
2024/01/16 04:20:24;;;;;;;4.38;1.20;;;;;;;;;;5052464;28;20043;-86
2024/01/16 04:22:51;;;;;;;3.92;0.80;;;;;;;;;;5051284;28;24332;-86
2024/01/16 04:25:18;;;;;;;5.07;1.23;;;;;;;;;;5037831;28;20036;-86
2024/01/16 04:27:45;;;;;;;7.55;0.98;;;;;;;;;;5063022;28;20089;-86
2024/01/16 04:30:13;;;;;;;3.85;0.90;;;;;;;;;;5068744;28;20071;-86
2024/01/16 04:32:40;;;;;;;7.20;0.68;;;;;;;;;;5044586;28;20435;-86
2024/01/16 04:35:08;;;;;;;7.07;1.80;;;;;;;;;;5047761;28;20044;-86
2024/01/16 04:37:35;;;;;;;7.20;0.75;;;;;;;;;;5047403;28;20786;-86
2024/01/16 04:40:04;;;;;;;2.05;0.77;;;;;;;;;;5047206;28;20086;-86
2024/01/16 04:42:32;;;;;;;5.63;1.13;;;;;;;;;;5048454;28;20044;-86
2024/01/16 04:45:00;;;;;;;5.32;0.85;;;;;;;;;;5065973;28;20091;-86
2024/01/16 04:47:27;;;;;;;4.93;0.77;;;;;;;;;;5035064;28;20043;-86
2024/01/16 04:49:54;;;;;;;6.10;0.85;;;;;;;;;;5069613;28;20055;-86
2024/01/16 04:52:21;;;;;;;5.23;1.00;;;;;;;;;;5064829;28;20043;-86
2024/01/16 04:54:48;;;;;;;3.97;1.20;;;;;;;;;;5044415;28;20036;-86
2024/01/16 04:57:16;;;;;;;1.65;0.60;;;;;;;;;;5064738;28;20151;-86
2024/01/16 04:59:43;;;;;;;3.50;0.90;;;;;;;;;;5042314;28;20040;-86
2024/01/16 05:02:11;;;;;;;4.53;0.90;;;;;;;;;;5064326;28;20040;-86
2024/01/16 05:04:40;;;;;;;6.57;1.10;;;;;;;;;;5042751;28;20048;-86
2024/01/16 05:07:07;;;;;;;8.43;1.48;;;;;;;;;;5031380;28;20046;-86
2024/01/16 05:09:34;;;;;;;5.32;0.93;;;;;;;;;;5048297;28;20046;-87
2024/01/16 05:12:02;;;;;;;5.33;1.87;;;;;;;;;;5065161;28;20035;-86
2024/01/16 05:14:29;;;;;;;4.45;0.93;;;;;;;;;;5063653;28;20822;-86
2024/01/16 05:16:57;;;;;;;7.20;1.20;;;;;;;;;;5039494;28;20048;-87
2024/01/16 05:19:25;;;;;;;3.40;1.13;;;;;;;;;;5033661;28;20133;-86
2024/01/16 05:21:52;;;;;;;3.30;0.82;;;;;;;;;;5062377;28;20760;-86
2024/01/16 05:24:21;;;;;;;3.80;1.00;;;;;;;;;;5066160;28;20040;-86
2024/01/16 05:26:48;;;;;;;3.80;1.55;;;;;;;;;;5048658;28;20388;-86
2024/01/16 05:29:17;;;;;;;6.53;1.35;;;;;;;;;;5036370;28;20979;-86
2024/01/16 05:31:44;;;;;;;8.98;1.45;;;;;;;;;;5043384;28;20165;-87
2024/01/16 05:34:12;;;;;;;2.90;1.25;;;;;;;;;;5045742;28;20036;-85
2024/01/16 05:36:39;;;;;;;5.68;1.00;;;;;;;;;;5043091;28;20593;-86
2024/01/16 05:39:06;;;;;;;5.25;0.95;;;;;;;;;;5031967;28;20072;-87
2024/01/16 05:41:34;;;;;;;3.75;1.00;;;;;;;;;;5057164;28;20543;-86
2024/01/16 05:44:04;;;;;;;3.25;1.00;;;;;;;;;;5043344;28;20119;-87
2024/01/16 05:46:32;;;;;;;7.95;1.48;;;;;;;;;;5043087;28;20047;-87
2024/01/16 05:48:59;;;;;;;3.20;0.95;;;;;;;;;;5047805;28;20040;-87
2024/01/16 05:51:27;;;;;;;6.47;0.88;;;;;;;;;;5034032;28;20044;-88
2024/01/16 05:53:55;;;;;;;4.05;0.95;;;;;;;;;;5061371;28;20044;-88
2024/01/16 05:56:22;;;;;;;7.43;1.40;;;;;;;;;;5050128;28;20126;-87
2024/01/16 05:58:50;;;;;;;3.22;0.98;;;;;;;;;;5047210;28;20430;-88
2024/01/16 06:01:18;;;;;;;4.55;1.17;;;;;;;;;;5051617;28;20380;-88
2024/01/16 06:03:48;;;;;;;4.38;1.00;;;;;;;;;;5034546;28;20044;-87
2024/01/16 06:06:16;;;;;;;7.00;1.17;;;;;;;;;;5050282;28;20059;-88
2024/01/16 06:08:44;;;;;;;6.30;1.00;;;;;;;;;;5046659;28;20074;-88
2024/01/16 06:11:12;;;;;;;7.65;1.20;;;;;;;;;;5051916;28;20039;-87
2024/01/16 06:13:39;;;;;;;3.05;1.20;;;;;;;;;;5064283;28;20052;-88
2024/01/16 06:16:09;;;;;;;4.38;1.27;;;;;;;;;;5063580;28;20144;-88
2024/01/16 06:18:37;;;;;;;3.90;0.80;;;;;;;;;;5050144;28;20059;-88
2024/01/16 06:21:04;;;;;;;2.97;0.77;;;;;;;;;;5037211;28;20036;-87
2024/01/16 06:23:33;;;;;;;5.03;1.10;;;;;;;;;;5070265;28;20130;-88
2024/01/16 06:26:01;;;;;;;2.72;1.15;;;;;;;;;;5056445;28;20309;-87
2024/01/16 06:28:28;;;;;;;3.80;1.00;;;;;;;;;;5066549;28;20032;-87
2024/01/16 06:30:55;;;;;;;7.38;1.10;;;;;;;;;;5051142;28;20176;-87
2024/01/16 06:33:22;;;;;;;5.75;1.38;;;;;;;;;;5053281;28;20039;-87
2024/01/16 06:35:50;;;;;;;4.93;1.27;;;;;;;;;;5031327;28;20040;-88
2024/01/16 06:38:18;;;;;;;4.70;1.08;;;;;;;;;;5064811;28;20159;-88
2024/01/16 06:40:45;;;;;;;3.97;1.30;;;;;;;;;;5066989;28;20119;-87
2024/01/16 06:43:15;;;;;;;7.97;1.98;;;;;;;;;;5050947;28;20075;-88
2024/01/16 06:45:43;;;;;;;5.70;1.33;;;;;;;;;;5052469;28;20549;-89
2024/01/16 06:48:10;;;;;;;5.72;1.35;;;;;;;;;;5068915;28;20506;-87
2024/01/16 06:50:38;;;;;;;3.45;1.20;;;;;;;;;;5051724;28;20047;-88
2024/01/16 06:53:06;;;;;;;6.82;1.55;;;;;;;;;;5042671;28;20036;-88
2024/01/16 06:55:33;;;;;;;6.85;1.52;;;;;;;;;;5051257;28;20047;-87
2024/01/16 06:58:00;;;;;;;2.55;1.42;;;;;;;;;;5043154;28;20040;-88
2024/01/16 07:00:28;;;;;;;4.35;1.58;;;;;;;;;;5043220;28;20040;-87
2024/01/16 07:02:55;;;;;;;7.70;2.20;;;;;;;;;;5060133;28;20042;-88
2024/01/16 07:05:23;;;;;;;6.07;1.55;;;;;;;;;;5090428;28;20055;-87
2024/01/16 07:07:50;;;;;;;5.90;1.75;;;;;;;;;;5064695;28;20048;-88
2024/01/16 07:10:24;;;;;;;8.68;1.70;;;;;;;;;;5064397;28;20044;-88
2024/01/16 07:12:52;;;;;;;5.82;1.90;;;;;;;;;;5054502;28;20103;-87
2024/01/16 07:15:19;;;;;;;6.87;2.67;;;;;;;;;;5076655;28;20048;-88
2024/01/16 07:17:49;;;;;;;7.47;2.10;;;;;;;;;;5061277;28;20126;-88
2024/01/16 07:20:18;;;;;;;4.90;1.83;;;;;;;;;;5063316;28;20447;-88
2024/01/16 07:22:45;;;;;;;;;;;;;;;;;;5061724;28;20404;-88
2024/01/16 07:25:13;;;;;;;8.02;2.55;;;;;;;;;;5079334;28;20018;-88
2024/01/16 07:27:42;;;;;;;8.20;2.92;;;;;;;;;;5058094;28;20043;-88
2024/01/16 07:30:10;;;;;;;7.88;2.55;;;;;;;;;;5076855;28;20503;-87
2024/01/16 07:32:37;;;;;;;7.30;2.27;;;;;;;;;;5046002;28;20657;-88
2024/01/16 07:35:04;;;;;;;7.70;2.92;;;;;;;;;;5046381;28;20063;-88
2024/01/16 07:37:32;;;;;;;8.73;3.38;;;;;;;;;;5072782;28;20090;-88
2024/01/16 07:40:01;;;;;;;4.13;2.50;;;;;;;;;;5038408;28;20047;-88
2024/01/16 07:42:33;;;;;;;11.02;3.47;;;;;;;;;;5040414;28;20036;-88
2024/01/16 07:45:04;;;;;;;10.18;3.80;;;;;;;;;;5067863;28;20451;-88
2024/01/16 07:47:31;;;;;;;8.60;3.15;;;;;;;;;;5071069;28;20159;-88
2024/01/16 07:49:59;;;;;;;6.82;2.80;;;;;;;;;;5061437;28;20048;-88
2024/01/16 07:52:29;;;;;;;6.10;3.43;;;;;;;;;;5043998;28;20539;-88
2024/01/16 07:54:57;;;;;;;6.10;3.47;;;;;;;;;;5042383;28;20305;-88
2024/01/16 07:57:24;;;;;;;6.20;3.55;;;;;;;;;;5055468;28;20042;-88
2024/01/16 07:59:52;;;;;;;6.22;3.47;;;;;;;;;;5062326;28;20036;-88
2024/01/16 08:02:19;;;;;;;4.95;3.67;;;;;;;;;;5036343;28;20039;-88
2024/01/16 08:04:46;;;;;;;8.82;4.10;;;;;;;;;;5069546;28;20043;-88
2024/01/16 08:07:14;;;;;;;9.90;4.45;;;;;;;;;;5060862;28;20138;-88
2024/01/16 08:09:41;;;;;;;6.47;3.50;;;;;;;;;;5056089;28;20049;-88
2024/01/16 08:12:09;;;;;;;10.60;4.40;;;;;;;;;;5059017;28;20098;-88
2024/01/16 08:14:36;;;;;;;6.78;4.05;;;;;;;;;;5071681;28;20044;-88
2024/01/16 08:17:04;;;;;;;9.70;4.97;;;;;;;;;;5046185;28;20062;-88
2024/01/16 08:19:32;;;;;;;8.40;4.87;;;;;;;;;;5048494;28;20496;-88
2024/01/16 08:22:00;;;;;;;8.52;4.45;;;;;;;;;;5064545;28;20297;-88
2024/01/16 08:24:27;;;;;;;10.67;4.90;;;;;;;;;;5060718;28;20035;-88
2024/01/16 08:26:57;;;;;;;10.73;5.45;;;;;;;;;;5054849;28;20312;-87
2024/01/16 08:29:25;;;;;;;8.15;5.22;;;;;;;;;;5047505;28;20040;-88
2024/01/16 08:31:52;;;;;;;11.95;4.82;;;;;;;;;;5058787;28;21971;-88
2024/01/16 08:34:20;;;;;;;10.23;4.77;;;;;;;;;;5047571;28;21005;-88
2024/01/16 08:36:47;;;;;;;7.38;4.70;;;;;;;;;;5072783;28;20299;-89
2024/01/16 08:39:19;;;;;;;9.50;4.83;;;;;;;;;;5091002;27;20040;-88
2024/01/16 08:41:49;;;;;;;8.35;4.43;;;;;;;;;;5052858;28;20302;-88
2024/01/16 08:44:16;;;;;;;9.45;4.53;;;;;;;;;;5038438;28;20115;-88
2024/01/16 08:46:44;;;;;;;8.93;4.50;;;;;;;;;;5055171;28;20035;-88
2024/01/16 08:49:11;;;;;;;9.35;4.45;;;;;;;;;;5043757;28;20044;-88
2024/01/16 08:51:41;;;;;;;10.10;4.70;;;;;;;;;;5061224;28;20059;-88
2024/01/16 08:54:08;;;;;;;9.77;4.63;;;;;;;;;;5075608;28;20082;-88
2024/01/16 08:56:38;;;;;;;8.40;4.60;;;;;;;;;;5062704;28;20035;-88
2024/01/16 08:59:08;;;;;;;7.93;5.00;;;;;;;;;;5078490;28;20048;-88
2024/01/16 09:01:35;;;;;;;9.00;4.18;;;;;;;;;;5048730;28;20036;-88
2024/01/16 09:04:02;;;;;;;8.43;4.07;;;;;;;;;;5075242;28;20049;-88
2024/01/16 09:06:28;;;;;;;9.32;4.45;;;;;;;;;;5056794;28;20534;-88
2024/01/16 09:08:56;;;;;;;9.43;4.68;;;;;;;;;;5074454;28;20036;-88
2024/01/16 09:11:23;;;;;;;6.63;4.55;;;;;;;;;;5061005;28;20044;-88
2024/01/16 09:13:51;;;;;;;8.37;3.80;;;;;;;;;;5053172;28;20084;-88
2024/01/16 09:16:18;;;;;;;9.47;3.87;;;;;;;;;;5074526;28;20354;-88
2024/01/16 09:18:46;;;;;;;8.13;4.47;;;;;;;;;;5073431;28;20310;-88
2024/01/16 09:21:16;;;;;;;6.15;3.63;;;;;;;;;;5079563;28;20396;-88
2024/01/16 09:23:43;;;;;;;6.55;3.45;;;;;;;;;;5064745;28;20514;-88
2024/01/16 09:26:11;;;;;;;6.28;4.00;;;;;;;;;;5044042;28;20052;-88
2024/01/16 09:28:39;;;;;;;6.95;3.88;;;;;;;;;;5061443;28;20067;-88
2024/01/16 09:31:07;;;;;;;8.82;3.92;;;;;;;;;;5062903;28;20059;-88
2024/01/16 09:33:34;;;;;;;8.02;3.78;;;;;;;;;;5072572;28;20165;-88
2024/01/16 09:36:02;;;;;;;8.80;3.88;;;;;;;;;;5059762;28;20131;-88
2024/01/16 09:38:30;;;;;;;6.53;4.03;;;;;;;;;;5045004;28;20032;-88
2024/01/16 09:41:02;;;;;;;7.15;3.88;;;;;;;;;;5077941;28;20089;-88
2024/01/16 09:43:33;;;;;;;5.93;4.05;;;;;;;;;;5074882;28;20036;-88
2024/01/16 09:46:04;;;;;;;7.13;3.58;;;;;;;;;;5069451;28;20177;-88
2024/01/16 09:48:32;;;;;;;7.88;4.82;;;;;;;;;;5081771;28;20424;-88
2024/01/16 09:50:59;;;;;;;11.65;5.45;;;;;;;;;;5081372;28;20380;-88
2024/01/16 09:53:27;;;;;;;7.95;4.53;;;;;;;;;;5055404;28;20036;-88
2024/01/16 09:55:55;;;;;;;6.18;4.32;;;;;;;;;;5042332;28;20043;-88
2024/01/16 09:58:23;;;;;;;7.35;4.95;;;;;;;;;;5040439;28;20468;-88
2024/01/16 10:00:51;;;;;;;;;;;;;;;;;;5052004;28;20101;-89
2024/01/16 10:03:18;;;;;;;8.30;4.97;;;;;;;;;;5060279;28;20364;-88
2024/01/16 10:05:47;;;;;;;9.15;5.47;;;;;;;;;;5052392;28;20454;-88
2024/01/16 10:08:14;;;;;;;11.00;5.70;;;;;;;;;;5057598;28;20044;-87
2024/01/16 10:10:42;;;;;;;11.05;6.15;;;;;;;;;;5065360;28;20665;-88
2024/01/16 10:13:09;;;;;;;10.80;5.97;;;;;;;;;;5062446;28;20080;-88
2024/01/16 10:15:37;;;;;;;12.63;6.03;;;;;;;;;;5053514;28;20408;-88
2024/01/16 10:18:04;;;;;;;9.35;5.95;;;;;;;;;;5044883;28;20117;-88
2024/01/16 10:20:34;;;;;;;10.40;6.47;;;;;;;;;;5048422;28;20036;-88
2024/01/16 10:23:03;;;;;;;11.90;6.45;;;;;;;;;;5074935;28;20071;-87
2024/01/16 10:25:32;;;;;;;12.48;6.95;;;;;;;;;;5057713;28;20079;-88
2024/01/16 10:28:08;;;;;;;13.20;7.82;;;;;;;;;;5061649;28;20046;-88
2024/01/16 10:30:35;;;;;;;11.63;5.40;;;;;;;;;;5035913;28;20506;-88
2024/01/16 10:33:13;;;;;;;11.23;5.57;;;;;;;;;;5062862;28;20044;-88
2024/01/16 10:35:41;;;;;;;8.63;5.10;;;;;;;;;;5064751;28;20040;-88
2024/01/16 10:38:08;;;;;;;7.90;5.50;;;;;;;;;;5076013;28;20040;-88
2024/01/16 10:40:35;;;;;;;14.20;5.90;;;;;;;;;;5043390;28;20032;-88
2024/01/16 10:43:06;;;;;;;9.70;5.63;;;;;;;;;;5062857;28;20037;-88
2024/01/16 10:45:34;;;;;;;8.40;5.10;;;;;;;;;;5060058;28;20051;-88
2024/01/16 10:48:06;;;;;;;8.82;4.97;;;;;;;;;;5046397;28;20033;-88
2024/01/16 10:50:34;;;;;;;8.65;4.55;;;;;;;;;;5073609;28;20130;-88
2024/01/16 10:53:04;;;;;;;6.50;4.43;;;;;;;;;;5051288;28;20035;-88
2024/01/16 10:55:31;;;;;;;8.32;4.55;;;;;;;;;;5068112;28;20044;-87
2024/01/16 10:58:00;;;;;;;8.88;4.18;;;;;;;;;;5049218;28;20055;-88
2024/01/16 11:00:27;;;;;;;;;;;;;;;;;;5060488;28;20051;-87
2024/01/16 11:10:47;;;;;;;;;;;;;;;;;;;;;
2024/01/16 11:32:20;;;;;;;;;;;;;;;;;;;;;
2024/01/16 15:29:16;;;;;;;7.80;2.90;;;;;;;;;;4792292;29;20041;-85
2024/01/16 15:48:08;;;;;;;9.73;3.92;;;;;;;;;;4939641;28;20484;-85
2024/01/16 15:50:36;;;;;;;8.27;3.08;;;;;;;;;;4889686;28;20053;-85
2024/01/16 15:53:04;;;;;;;9.15;3.97;;;;;;;;;;4907769;29;20496;-85
2024/01/16 15:55:31;;;;;;;;;;;;;;;;;;4888892;28;20426;-86
2024/01/16 15:57:59;;;;;;;8.25;3.53;;;;;;;;;;4912067;28;19976;-85
2024/01/16 16:00:26;;;;;;;8.00;3.75;;;;;;;;;;4923814;29;20051;-85
2024/01/16 16:24:27;;;;;;;;;;;;;;;;;;;;;
2024/01/16 17:44:37;;;;;;;10.90;5.35;;;;;;;;;;4922169;29;20034;-85
2024/01/16 18:23:47;;;;;;;;;;;;;;;;;;;;;
2024/01/16 18:27:04;;;;;;;11.13;6.30;;;;;;;;;;4836620;29;20048;-85
2024/01/16 18:29:57;;;;;;;;;;;;;;;;;;;;;
2024/01/16 18:49:29;;;;;;;;;;;;;;;;;;;;;
2024/01/16 18:52:39;;;;;;;;;;;;;;;;;;;;;
2024/01/16 20:08:56;;;;;;;;;;;;;;;;;;;;;
2024/01/16 20:12:20;;;;;;;10.38;8.18;;;;;;;;;;4865342;29;20070;-86
2024/01/16 20:18:39;;;;;;;12.15;9.65;;;;;;;;;;4872891;24;20120;-85
2024/01/16 20:22:29;;;;;;;;;;;;;;;;;;;;;
2024/01/16 20:25:41;;;;;;;12.77;9.20;;;;;;;;;;4771547;29;20047;-85
2024/01/16 20:28:29;;;;;;;13.35;8.80;;;;;;;;;;4754224;29;20137;-85
2024/01/16 20:34:51;;;;;;;;;;;;;;;;;;;;;
2024/01/16 20:37:50;;;;;;;10.40;8.48;;;;;;;;;;4755744;29;20047;-85
2024/01/16 20:44:24;;;;;;;12.02;8.85;;;;;;;;;;4703936;30;20160;-85
2024/01/16 20:47:20;;;;;;;;;;;;;;;;;;;;;
2024/01/16 21:01:37;;;;;;;14.95;9.35;;;;;;;;;;4671336;30;20123;-85
2024/01/16 21:08:21;;;;;;;;;;;;;;;;;;;;;
2024/01/16 21:42:34;;;;;;;15.32;9.07;;;;;;;;;;6130973;22;1286567;-85
2024/01/16 21:45:01;;;;;;;13.15;9.65;;;;;;;;;;6184309;23;20029;-84
2024/01/16 21:47:28;;;;;;;10.77;9.05;;;;;;;;;;6132981;23;20063;-84
2024/01/16 21:49:55;;;;;;;14.23;8.98;;;;;;;;;;6132305;23;20338;-85
2024/01/16 21:52:23;;;;;;;10.30;8.35;;;;;;;;;;6182195;23;20048;-85
2024/01/16 21:54:51;;;;;;;11.63;9.17;;;;;;;;;;6155034;23;20013;-85
2024/01/16 21:57:19;;;;;;;10.40;9.10;;;;;;;;;;6132171;23;20760;-84
2024/01/16 21:59:47;;;;;;;14.25;8.85;;;;;;;;;;6156656;23;20024;-84
2024/01/16 22:02:15;;;;;;;10.77;8.70;;;;;;;;;;6158800;23;20067;-84
2024/01/16 22:04:44;;;;;;;11.93;8.52;;;;;;;;;;6131192;23;20080;-84
2024/01/16 22:07:11;;;;;;;13.03;8.67;;;;;;;;;;6132040;23;20609;-85
2024/01/16 22:09:39;;;;;;;12.70;8.93;;;;;;;;;;6130822;23;20343;-85
2024/01/16 22:12:08;;;;;;;14.48;8.52;;;;;;;;;;6132351;23;20021;-84
2024/01/16 22:14:37;;;;;;;13.27;8.52;;;;;;;;;;6132890;23;20012;-84
2024/01/16 22:17:04;;;;;;;11.05;8.13;;;;;;;;;;6133583;23;20017;-84
2024/01/16 22:19:35;;;;;;;14.20;8.23;;;;;;;;;;6105473;23;20017;-84
2024/01/16 22:22:02;;;;;;;12.55;7.70;;;;;;;;;;6104133;23;20308;-84
2024/01/16 22:24:32;;;;;;;12.07;8.23;;;;;;;;;;6152007;23;20033;-84
2024/01/16 22:26:59;;;;;;;11.65;7.75;;;;;;;;;;6103570;23;20020;-84
2024/01/16 22:29:26;;;;;;;8.93;7.20;;;;;;;;;;6104660;23;20446;-84
2024/01/16 22:31:54;;;;;;;9.55;6.97;;;;;;;;;;6123819;23;20017;-84
2024/01/16 22:34:23;;;;;;;14.80;8.00;;;;;;;;;;6128770;23;20009;-84
2024/01/16 22:36:52;;;;;;;14.90;7.95;;;;;;;;;;6124497;23;20751;-85
2024/01/16 22:39:20;;;;;;;9.25;7.18;;;;;;;;;;6100882;23;20022;-84
2024/01/16 22:41:47;;;;;;;12.68;7.65;;;;;;;;;;6116818;23;20031;-84
2024/01/16 22:44:15;;;;;;;10.25;7.47;;;;;;;;;;6120449;23;20025;-84
2024/01/16 22:46:42;;;;;;;9.38;6.65;;;;;;;;;;6094539;23;20021;-84
2024/01/16 22:49:12;;;;;;;10.32;6.53;;;;;;;;;;6145147;23;20083;-84
2024/01/16 22:51:39;;;;;;;8.10;5.75;;;;;;;;;;6095360;23;20095;-84
2024/01/16 22:54:06;;;;;;;10.27;6.72;;;;;;;;;;6097136;23;20017;-87
2024/01/16 22:56:34;;;;;;;10.68;6.53;;;;;;;;;;6094507;23;20411;-87
2024/01/16 22:59:01;;;;;;;9.40;6.32;;;;;;;;;;6122554;23;20076;-87
2024/01/16 23:01:28;;;;;;;10.18;5.55;;;;;;;;;;6121211;23;20052;-87
2024/01/16 23:03:56;;;;;;;10.45;5.85;;;;;;;;;;6096144;23;20021;-87
2024/01/16 23:06:27;;;;;;;7.80;5.32;;;;;;;;;;6097625;23;20025;-87
2024/01/16 23:08:59;;;;;;;7.18;5.18;;;;;;;;;;6118700;23;20120;-87
2024/01/16 23:11:26;;;;;;;8.23;5.55;;;;;;;;;;6098040;23;20053;-87
2024/01/16 23:13:54;;;;;;;9.07;5.53;;;;;;;;;;6121017;23;20584;-84
2024/01/16 23:16:21;;;;;;;7.97;5.28;;;;;;;;;;6123185;23;20571;-85
2024/01/16 23:18:48;;;;;;;11.20;5.70;;;;;;;;;;6119528;23;20091;-85
2024/01/16 23:21:19;;;;;;;10.68;5.35;;;;;;;;;;6094615;23;20021;-84
2024/01/16 23:23:47;;;;;;;8.32;4.75;;;;;;;;;;6095817;23;20100;-84
2024/01/16 23:26:15;;;;;;;7.07;4.72;;;;;;;;;;6118911;23;20022;-84
2024/01/16 23:28:42;;;;;;;10.23;5.40;;;;;;;;;;6091654;23;20469;-84
2024/01/16 23:31:11;;;;;;;7.78;4.63;;;;;;;;;;6119358;23;20288;-84
2024/01/16 23:33:38;;;;;;;8.63;5.18;;;;;;;;;;6093176;23;20028;-84
2024/01/16 23:36:06;;;;;;;6.80;4.82;;;;;;;;;;6095182;23;20045;-84
2024/01/16 23:38:36;;;;;;;8.48;4.65;;;;;;;;;;6117689;23;20018;-84
2024/01/16 23:41:04;;;;;;;7.22;4.55;;;;;;;;;;6096328;23;20032;-87
2024/01/16 23:43:33;;;;;;;6.82;4.82;;;;;;;;;;6096482;23;20645;-87
2024/01/16 23:46:00;;;;;;;6.90;4.28;;;;;;;;;;6095563;23;20013;-86
2024/01/16 23:48:29;;;;;;;12.00;4.43;;;;;;;;;;6094921;23;20018;-85
2024/01/16 23:50:59;;;;;;;9.40;4.80;;;;;;;;;;6096260;23;20022;-84
2024/01/16 23:53:26;;;;;;;7.65;4.88;;;;;;;;;;6119490;23;20088;-84
2024/01/16 23:55:54;;;;;;;6.47;4.47;;;;;;;;;;6092270;23;20049;-85
2024/01/16 23:58:22;;;;;;;8.60;4.55;;;;;;;;;;6118297;23;20548;-84
